TFM - Tactical Decision Aid
ID: Runway Winds: CIG/VIS Threshold:

KMCO - Orlando Intl, FL, US

Updated at: 1603 UTC 22 Sep 2019
Latest TAF at: 1504 UTC 22 Sep 2019

TAF Board

Time1553Z 22/17Z 22/18Z 22/19Z 22/20Z 22/21Z 22/22Z 22/23Z 23/00Z 23/01Z 23/02Z 23/03Z 23/04Z 23/05Z>>
Type OBS PRVL PRVL PRVL PRVL PRVL PRVL PRVL PRVL PRVL PRVL PRVL PRVL PRVL
VIS 10 >6 >6 >6 >6 >6 >6 >6 >6 >6 >6 >6 >6 >6
CIG 42 40 -- -- -- -- -- -- -- -- -- -- -- --
Cover BKN BKN SCT SCT SCT SCT SCT SCT SCT FEW FEW FEW FEW FEW
FltCat VFR VFR VFR VFR VFR VFR VFR VFR VFR VFR VFR VFR VFR VFR
WX -- -- -- -- -- -- -- -- -- -- -- -- -- --
WDir 60 70 70 70 70 70 70 70 70 40 40 40 40 40
WSpd 14 14 15 15 15 15 15 15 15 8 8 8 8 8
WGst -- 21 22 22 22 22 22 22 22 -- -- -- -- --

TDA Impact Legend

  None Marginal Slight Moderate High
Visibility (sm) >5 3≤X≤5 1≤X<3 0.5≤X<1 <0.5
Ceiling (100 ft) >30 10≤X≤30 4≤X<10 2≤X<4 <2
Wind Speed (kt) <15 15≤X<25 25≤X<30 ≥30
Wind Gust (kt) <15 15≤X<25 25≤X<35 ≥35
Weather No Wx Reported VCTS -TS,-FZRA TS,FZRA +TS,+FZRA
TAF
KMCO 221504Z 2215/2318 07014G21KT P6SM BKN040
  FM221800 07015G22KT P6SM SCT040
  FM230100 04008KT P6SM FEW030
  FM231400 05010G16KT P6SM SCT040


METAR
KMCO 221553Z 06014KT 10SM BKN042 29/19 A3012 RMK AO2 SLP197 T02890189
KMCO 221453Z 07014G21KT 10SM BKN040 28/18 A3012 RMK AO2 SLP199 T02830183 51004
KMCO 221353Z 07012KT 10SM FEW033 SCT040 27/19 A3012 RMK AO2 SLP199 T02670189
KMCO 221253Z 06008KT 10SM FEW045 FEW250 24/18 A3012 RMK AO2 SLP197 T02440183

Radar Display
Forecast Discussion